sensor_id;sensor_type;location;lat;lon;timestamp;P1;durP1;ratioP1;P2;durP2;ratioP2
14040;SDS011;7095;51.388;6.196;2022-08-25T00:00:17;10.87;;;5.97;;
14040;SDS011;7095;51.388;6.196;2022-08-25T00:02:46;12.20;;;5.00;;
14040;SDS011;7095;51.388;6.196;2022-08-25T00:05:27;8.13;;;4.10;;
14040;SDS011;7095;51.388;6.196;2022-08-25T00:08:00;6.70;;;4.30;;
14040;SDS011;7095;51.388;6.196;2022-08-25T00:10:33;6.87;;;3.90;;
14040;SDS011;7095;51.388;6.196;2022-08-25T00:13:03;9.33;;;4.20;;
14040;SDS011;7095;51.388;6.196;2022-08-25T00:15:32;9.30;;;4.30;;
14040;SDS011;7095;51.388;6.196;2022-08-25T00:18:02;5.13;;;3.93;;
14040;SDS011;7095;51.388;6.196;2022-08-25T00:20:47;7.37;;;3.40;;
14040;SDS011;7095;51.388;6.196;2022-08-25T00:23:16;8.30;;;3.93;;
14040;SDS011;7095;51.388;6.196;2022-08-25T00:25:45;7.30;;;3.37;;
14040;SDS011;7095;51.388;6.196;2022-08-25T00:28:14;5.57;;;3.10;;
14040;SDS011;7095;51.388;6.196;2022-08-25T00:30:45;5.17;;;3.47;;
14040;SDS011;7095;51.388;6.196;2022-08-25T00:33:15;4.67;;;3.43;;
14040;SDS011;7095;51.388;6.196;2022-08-25T00:35:46;6.83;;;3.43;;
14040;SDS011;7095;51.388;6.196;2022-08-25T00:38:16;6.17;;;3.83;;
14040;SDS011;7095;51.388;6.196;2022-08-25T00:40:44;6.17;;;3.20;;
14040;SDS011;7095;51.388;6.196;2022-08-25T00:43:33;4.20;;;3.33;;
14040;SDS011;7095;51.388;6.196;2022-08-25T00:46:04;5.63;;;3.17;;
14040;SDS011;7095;51.388;6.196;2022-08-25T00:48:33;8.40;;;3.57;;
14040;SDS011;7095;51.388;6.196;2022-08-25T00:51:03;7.40;;;3.83;;
14040;SDS011;7095;51.388;6.196;2022-08-25T00:53:35;5.23;;;3.17;;
14040;SDS011;7095;51.388;6.196;2022-08-25T00:56:04;4.97;;;3.20;;
14040;SDS011;7095;51.388;6.196;2022-08-25T00:58:33;8.83;;;3.57;;
14040;SDS011;7095;51.388;6.196;2022-08-25T01:01:04;5.57;;;3.20;;
14040;SDS011;7095;51.388;6.196;2022-08-25T01:03:33;5.67;;;3.53;;
14040;SDS011;7095;51.388;6.196;2022-08-25T01:06:03;6.57;;;3.57;;
14040;SDS011;7095;51.388;6.196;2022-08-25T01:08:33;5.23;;;3.53;;
14040;SDS011;7095;51.388;6.196;2022-08-25T01:11:03;5.47;;;3.47;;
14040;SDS011;7095;51.388;6.196;2022-08-25T01:13:34;5.10;;;3.80;;
14040;SDS011;7095;51.388;6.196;2022-08-25T01:16:06;4.27;;;3.10;;
14040;SDS011;7095;51.388;6.196;2022-08-25T01:18:41;7.07;;;3.77;;
14040;SDS011;7095;51.388;6.196;2022-08-25T01:21:14;6.53;;;3.13;;
14040;SDS011;7095;51.388;6.196;2022-08-25T01:23:45;8.30;;;3.60;;
14040;SDS011;7095;51.388;6.196;2022-08-25T01:26:17;7.53;;;3.30;;
14040;SDS011;7095;51.388;6.196;2022-08-25T01:28:56;3.17;;;2.90;;
14040;SDS011;7095;51.388;6.196;2022-08-25T01:31:43;8.47;;;3.27;;
14040;SDS011;7095;51.388;6.196;2022-08-25T01:34:13;10.83;;;3.20;;
14040;SDS011;7095;51.388;6.196;2022-08-25T01:36:43;4.73;;;3.50;;
14040;SDS011;7095;51.388;6.196;2022-08-25T01:39:12;10.40;;;3.53;;
14040;SDS011;7095;51.388;6.196;2022-08-25T01:41:44;3.77;;;3.00;;
14040;SDS011;7095;51.388;6.196;2022-08-25T01:44:25;6.30;;;3.20;;
14040;SDS011;7095;51.388;6.196;2022-08-25T01:46:54;5.77;;;3.30;;
14040;SDS011;7095;51.388;6.196;2022-08-25T01:49:23;4.63;;;2.83;;
14040;SDS011;7095;51.388;6.196;2022-08-25T01:51:55;4.30;;;3.07;;
14040;SDS011;7095;51.388;6.196;2022-08-25T01:54:28;8.67;;;3.40;;
14040;SDS011;7095;51.388;6.196;2022-08-25T01:56:56;6.03;;;3.00;;
14040;SDS011;7095;51.388;6.196;2022-08-25T01:59:25;3.87;;;2.70;;
14040;SDS011;7095;51.388;6.196;2022-08-25T02:01:54;4.03;;;2.93;;
14040;SDS011;7095;51.388;6.196;2022-08-25T02:04:26;7.67;;;3.23;;
14040;SDS011;7095;51.388;6.196;2022-08-25T02:07:00;5.30;;;3.27;;
14040;SDS011;7095;51.388;6.196;2022-08-25T02:09:31;4.67;;;2.70;;
14040;SDS011;7095;51.388;6.196;2022-08-25T02:12:03;5.73;;;2.90;;
14040;SDS011;7095;51.388;6.196;2022-08-25T02:14:32;5.53;;;3.00;;
14040;SDS011;7095;51.388;6.196;2022-08-25T02:17:03;4.03;;;3.10;;
14040;SDS011;7095;51.388;6.196;2022-08-25T02:19:32;4.43;;;3.10;;
14040;SDS011;7095;51.388;6.196;2022-08-25T02:22:02;5.97;;;2.90;;
14040;SDS011;7095;51.388;6.196;2022-08-25T02:24:31;5.10;;;2.80;;
14040;SDS011;7095;51.388;6.196;2022-08-25T02:27:00;5.20;;;3.10;;
14040;SDS011;7095;51.388;6.196;2022-08-25T02:29:30;4.70;;;3.13;;
14040;SDS011;7095;51.388;6.196;2022-08-25T02:31:59;6.43;;;3.20;;
14040;SDS011;7095;51.388;6.196;2022-08-25T02:34:28;4.43;;;2.83;;
14040;SDS011;7095;51.388;6.196;2022-08-25T02:36:57;6.07;;;2.73;;
14040;SDS011;7095;51.388;6.196;2022-08-25T02:39:27;5.57;;;2.90;;
14040;SDS011;7095;51.388;6.196;2022-08-25T02:41:56;7.57;;;3.20;;
14040;SDS011;7095;51.388;6.196;2022-08-25T02:44:26;5.00;;;3.33;;
14040;SDS011;7095;51.388;6.196;2022-08-25T02:46:55;6.43;;;3.20;;
14040;SDS011;7095;51.388;6.196;2022-08-25T02:49:24;9.03;;;3.13;;
14040;SDS011;7095;51.388;6.196;2022-08-25T02:51:53;5.73;;;2.77;;
14040;SDS011;7095;51.388;6.196;2022-08-25T02:54:22;9.33;;;3.43;;
14040;SDS011;7095;51.388;6.196;2022-08-25T02:56:53;5.47;;;2.80;;
14040;SDS011;7095;51.388;6.196;2022-08-25T02:59:22;5.07;;;3.30;;
14040;SDS011;7095;51.388;6.196;2022-08-25T03:01:50;5.47;;;2.70;;
14040;SDS011;7095;51.388;6.196;2022-08-25T03:04:19;7.40;;;3.00;;
14040;SDS011;7095;51.388;6.196;2022-08-25T03:06:48;4.00;;;2.90;;
14040;SDS011;7095;51.388;6.196;2022-08-25T03:09:17;4.67;;;2.97;;
14040;SDS011;7095;51.388;6.196;2022-08-25T03:11:46;3.73;;;2.50;;
14040;SDS011;7095;51.388;6.196;2022-08-25T03:14:16;3.10;;;2.77;;
14040;SDS011;7095;51.388;6.196;2022-08-25T03:16:44;8.27;;;2.80;;
14040;SDS011;7095;51.388;6.196;2022-08-25T03:19:15;4.03;;;2.93;;
14040;SDS011;7095;51.388;6.196;2022-08-25T03:21:43;5.90;;;3.43;;
14040;SDS011;7095;51.388;6.196;2022-08-25T03:24:13;6.83;;;3.20;;
14040;SDS011;7095;51.388;6.196;2022-08-25T03:26:42;5.57;;;2.77;;
14040;SDS011;7095;51.388;6.196;2022-08-25T03:29:25;6.63;;;2.80;;
14040;SDS011;7095;51.388;6.196;2022-08-25T03:31:56;5.43;;;2.93;;
14040;SDS011;7095;51.388;6.196;2022-08-25T03:34:26;9.40;;;3.17;;
14040;SDS011;7095;51.388;6.196;2022-08-25T03:36:57;7.47;;;2.50;;
14040;SDS011;7095;51.388;6.196;2022-08-25T03:39:26;4.33;;;3.07;;
14040;SDS011;7095;51.388;6.196;2022-08-25T03:41:56;5.23;;;2.87;;
14040;SDS011;7095;51.388;6.196;2022-08-25T03:44:26;6.83;;;2.77;;
14040;SDS011;7095;51.388;6.196;2022-08-25T03:46:54;2.97;;;2.30;;
14040;SDS011;7095;51.388;6.196;2022-08-25T03:49:23;4.63;;;2.70;;
14040;SDS011;7095;51.388;6.196;2022-08-25T03:51:52;6.93;;;2.73;;
14040;SDS011;7095;51.388;6.196;2022-08-25T03:54:22;3.40;;;2.70;;
14040;SDS011;7095;51.388;6.196;2022-08-25T03:56:53;8.93;;;3.50;;
14040;SDS011;7095;51.388;6.196;2022-08-25T03:59:22;4.77;;;2.90;;
14040;SDS011;7095;51.388;6.196;2022-08-25T04:01:54;8.63;;;2.80;;
14040;SDS011;7095;51.388;6.196;2022-08-25T04:04:23;4.57;;;2.83;;
14040;SDS011;7095;51.388;6.196;2022-08-25T04:06:51;5.87;;;3.27;;
14040;SDS011;7095;51.388;6.196;2022-08-25T04:09:20;4.03;;;2.70;;
14040;SDS011;7095;51.388;6.196;2022-08-25T04:11:49;5.20;;;2.67;;
14040;SDS011;7095;51.388;6.196;2022-08-25T04:14:19;6.27;;;2.60;;
14040;SDS011;7095;51.388;6.196;2022-08-25T04:16:50;6.17;;;3.17;;
14040;SDS011;7095;51.388;6.196;2022-08-25T04:19:21;3.70;;;2.60;;
14040;SDS011;7095;51.388;6.196;2022-08-25T04:21:49;3.33;;;2.80;;
14040;SDS011;7095;51.388;6.196;2022-08-25T04:24:23;5.47;;;2.67;;
14040;SDS011;7095;51.388;6.196;2022-08-25T04:26:51;7.43;;;3.00;;
14040;SDS011;7095;51.388;6.196;2022-08-25T04:29:21;6.73;;;2.70;;
14040;SDS011;7095;51.388;6.196;2022-08-25T04:31:50;4.30;;;3.07;;
14040;SDS011;7095;51.388;6.196;2022-08-25T04:34:22;5.47;;;3.10;;
14040;SDS011;7095;51.388;6.196;2022-08-25T04:36:57;5.80;;;3.07;;
14040;SDS011;7095;51.388;6.196;2022-08-25T04:39:27;5.13;;;3.07;;
14040;SDS011;7095;51.388;6.196;2022-08-25T04:41:56;5.37;;;3.20;;
14040;SDS011;7095;51.388;6.196;2022-08-25T04:44:27;4.47;;;2.87;;
14040;SDS011;7095;51.388;6.196;2022-08-25T04:46:56;3.80;;;2.80;;
14040;SDS011;7095;51.388;6.196;2022-08-25T04:49:27;5.17;;;3.17;;
14040;SDS011;7095;51.388;6.196;2022-08-25T04:51:57;4.77;;;2.93;;
14040;SDS011;7095;51.388;6.196;2022-08-25T04:54:26;7.67;;;3.10;;
14040;SDS011;7095;51.388;6.196;2022-08-25T04:57:02;4.17;;;3.10;;
14040;SDS011;7095;51.388;6.196;2022-08-25T04:59:31;4.83;;;3.10;;
14040;SDS011;7095;51.388;6.196;2022-08-25T05:02:00;7.30;;;3.43;;
14040;SDS011;7095;51.388;6.196;2022-08-25T05:04:33;6.77;;;3.50;;
14040;SDS011;7095;51.388;6.196;2022-08-25T05:07:03;9.93;;;3.30;;
14040;SDS011;7095;51.388;6.196;2022-08-25T05:09:32;5.57;;;2.73;;
14040;SDS011;7095;51.388;6.196;2022-08-25T05:12:00;7.30;;;3.33;;
14040;SDS011;7095;51.388;6.196;2022-08-25T05:14:30;6.77;;;3.23;;
14040;SDS011;7095;51.388;6.196;2022-08-25T05:17:00;3.87;;;3.20;;
14040;SDS011;7095;51.388;6.196;2022-08-25T05:19:29;8.23;;;3.53;;
14040;SDS011;7095;51.388;6.196;2022-08-25T05:21:59;3.70;;;2.97;;
14040;SDS011;7095;51.388;6.196;2022-08-25T05:24:28;10.07;;;3.20;;
14040;SDS011;7095;51.388;6.196;2022-08-25T05:26:57;5.23;;;3.13;;
14040;SDS011;7095;51.388;6.196;2022-08-25T05:29:26;5.93;;;2.97;;
14040;SDS011;7095;51.388;6.196;2022-08-25T05:31:55;7.50;;;3.20;;
14040;SDS011;7095;51.388;6.196;2022-08-25T05:34:24;11.80;;;3.20;;
14040;SDS011;7095;51.388;6.196;2022-08-25T05:36:52;4.17;;;2.90;;
14040;SDS011;7095;51.388;6.196;2022-08-25T05:39:24;7.37;;;3.50;;
14040;SDS011;7095;51.388;6.196;2022-08-25T05:41:53;5.27;;;3.20;;
14040;SDS011;7095;51.388;6.196;2022-08-25T05:44:22;7.23;;;3.00;;
14040;SDS011;7095;51.388;6.196;2022-08-25T05:46:51;5.63;;;3.50;;
14040;SDS011;7095;51.388;6.196;2022-08-25T05:49:20;5.53;;;3.37;;
14040;SDS011;7095;51.388;6.196;2022-08-25T05:51:48;6.00;;;3.63;;
14040;SDS011;7095;51.388;6.196;2022-08-25T05:54:17;6.27;;;3.37;;
14040;SDS011;7095;51.388;6.196;2022-08-25T05:56:47;6.20;;;3.20;;
14040;SDS011;7095;51.388;6.196;2022-08-25T05:59:16;6.43;;;3.60;;
14040;SDS011;7095;51.388;6.196;2022-08-25T06:01:45;11.77;;;3.40;;
14040;SDS011;7095;51.388;6.196;2022-08-25T06:04:32;7.90;;;3.73;;
14040;SDS011;7095;51.388;6.196;2022-08-25T06:07:06;7.50;;;3.10;;
14040;SDS011;7095;51.388;6.196;2022-08-25T06:09:36;6.70;;;3.60;;
14040;SDS011;7095;51.388;6.196;2022-08-25T06:12:07;4.10;;;2.90;;
14040;SDS011;7095;51.388;6.196;2022-08-25T06:14:36;9.87;;;3.30;;
14040;SDS011;7095;51.388;6.196;2022-08-25T06:17:05;6.50;;;3.57;;
14040;SDS011;7095;51.388;6.196;2022-08-25T06:19:34;7.63;;;3.10;;
14040;SDS011;7095;51.388;6.196;2022-08-25T06:22:07;6.80;;;3.73;;
14040;SDS011;7095;51.388;6.196;2022-08-25T06:24:35;4.20;;;2.87;;
14040;SDS011;7095;51.388;6.196;2022-08-25T06:27:04;9.70;;;4.10;;
14040;SDS011;7095;51.388;6.196;2022-08-25T06:29:34;6.07;;;3.33;;
14040;SDS011;7095;51.388;6.196;2022-08-25T06:32:03;6.30;;;3.47;;
14040;SDS011;7095;51.388;6.196;2022-08-25T06:34:33;5.13;;;3.60;;
14040;SDS011;7095;51.388;6.196;2022-08-25T06:37:02;15.13;;;3.60;;
14040;SDS011;7095;51.388;6.196;2022-08-25T06:39:31;5.63;;;3.60;;
14040;SDS011;7095;51.388;6.196;2022-08-25T06:42:00;4.97;;;4.03;;
14040;SDS011;7095;51.388;6.196;2022-08-25T06:44:29;9.67;;;3.97;;
14040;SDS011;7095;51.388;6.196;2022-08-25T06:46:59;8.70;;;3.77;;
14040;SDS011;7095;51.388;6.196;2022-08-25T06:49:28;8.67;;;3.80;;
14040;SDS011;7095;51.388;6.196;2022-08-25T06:52:02;5.30;;;3.60;;
14040;SDS011;7095;51.388;6.196;2022-08-25T06:54:32;10.70;;;3.77;;
14040;SDS011;7095;51.388;6.196;2022-08-25T06:57:01;6.37;;;4.10;;
14040;SDS011;7095;51.388;6.196;2022-08-25T06:59:30;7.93;;;3.80;;
14040;SDS011;7095;51.388;6.196;2022-08-25T07:02:02;6.63;;;3.90;;
14040;SDS011;7095;51.388;6.196;2022-08-25T07:04:32;5.30;;;3.83;;
14040;SDS011;7095;51.388;6.196;2022-08-25T07:07:02;8.27;;;3.90;;
14040;SDS011;7095;51.388;6.196;2022-08-25T07:09:31;5.70;;;3.60;;
14040;SDS011;7095;51.388;6.196;2022-08-25T07:12:05;5.97;;;3.50;;
14040;SDS011;7095;51.388;6.196;2022-08-25T07:14:34;6.33;;;3.53;;
14040;SDS011;7095;51.388;6.196;2022-08-25T07:17:05;6.57;;;3.70;;
14040;SDS011;7095;51.388;6.196;2022-08-25T07:19:38;6.50;;;4.57;;
14040;SDS011;7095;51.388;6.196;2022-08-25T07:22:07;9.30;;;3.60;;
14040;SDS011;7095;51.388;6.196;2022-08-25T07:24:36;4.53;;;3.60;;
14040;SDS011;7095;51.388;6.196;2022-08-25T07:27:05;7.37;;;3.80;;
14040;SDS011;7095;51.388;6.196;2022-08-25T07:29:35;4.77;;;3.70;;
14040;SDS011;7095;51.388;6.196;2022-08-25T07:32:10;7.83;;;3.57;;
14040;SDS011;7095;51.388;6.196;2022-08-25T07:34:39;9.17;;;3.40;;
14040;SDS011;7095;51.388;6.196;2022-08-25T07:37:27;8.00;;;4.10;;
14040;SDS011;7095;51.388;6.196;2022-08-25T07:40:16;9.47;;;3.50;;
14040;SDS011;7095;51.388;6.196;2022-08-25T07:42:50;13.40;;;3.53;;
14040;SDS011;7095;51.388;6.196;2022-08-25T07:45:21;6.63;;;3.77;;
14040;SDS011;7095;51.388;6.196;2022-08-25T07:47:58;9.70;;;3.70;;
14040;SDS011;7095;51.388;6.196;2022-08-25T07:50:29;6.90;;;3.70;;
14040;SDS011;7095;51.388;6.196;2022-08-25T07:52:58;7.67;;;3.63;;
14040;SDS011;7095;51.388;6.196;2022-08-25T07:55:27;4.57;;;3.07;;
14040;SDS011;7095;51.388;6.196;2022-08-25T07:57:57;11.37;;;4.00;;
14040;SDS011;7095;51.388;6.196;2022-08-25T08:00:27;5.53;;;3.40;;
14040;SDS011;7095;51.388;6.196;2022-08-25T08:03:00;7.73;;;3.57;;
14040;SDS011;7095;51.388;6.196;2022-08-25T08:05:34;6.93;;;3.63;;
14040;SDS011;7095;51.388;6.196;2022-08-25T08:08:03;13.97;;;3.80;;
14040;SDS011;7095;51.388;6.196;2022-08-25T08:10:32;10.83;;;3.70;;
14040;SDS011;7095;51.388;6.196;2022-08-25T08:13:23;6.00;;;4.00;;
14040;SDS011;7095;51.388;6.196;2022-08-25T08:15:52;11.83;;;4.57;;
14040;SDS011;7095;51.388;6.196;2022-08-25T08:18:23;10.10;;;3.87;;
14040;SDS011;7095;51.388;6.196;2022-08-25T08:20:51;9.47;;;3.63;;
14040;SDS011;7095;51.388;6.196;2022-08-25T08:23:22;6.60;;;3.63;;
14040;SDS011;7095;51.388;6.196;2022-08-25T08:25:53;9.87;;;3.67;;
14040;SDS011;7095;51.388;6.196;2022-08-25T08:28:23;7.27;;;3.73;;
14040;SDS011;7095;51.388;6.196;2022-08-25T08:30:54;4.90;;;3.13;;
14040;SDS011;7095;51.388;6.196;2022-08-25T08:33:25;6.53;;;3.50;;
14040;SDS011;7095;51.388;6.196;2022-08-25T08:35:55;7.67;;;3.80;;
14040;SDS011;7095;51.388;6.196;2022-08-25T08:38:31;8.00;;;3.60;;
14040;SDS011;7095;51.388;6.196;2022-08-25T08:41:11;8.10;;;3.77;;
14040;SDS011;7095;51.388;6.196;2022-08-25T08:44:31;11.23;;;3.73;;
14040;SDS011;7095;51.388;6.196;2022-08-25T08:47:10;3.73;;;3.23;;
14040;SDS011;7095;51.388;6.196;2022-08-25T08:49:51;6.47;;;3.60;;
14040;SDS011;7095;51.388;6.196;2022-08-25T08:52:32;10.17;;;3.60;;
14040;SDS011;7095;51.388;6.196;2022-08-25T08:55:10;15.13;;;4.17;;
14040;SDS011;7095;51.388;6.196;2022-08-25T08:57:48;7.87;;;3.33;;
14040;SDS011;7095;51.388;6.196;2022-08-25T09:00:21;5.90;;;3.43;;
14040;SDS011;7095;51.388;6.196;2022-08-25T09:02:52;5.83;;;3.57;;
14040;SDS011;7095;51.388;6.196;2022-08-25T09:05:27;5.17;;;3.57;;
14040;SDS011;7095;51.388;6.196;2022-08-25T09:08:04;6.03;;;3.50;;
14040;SDS011;7095;51.388;6.196;2022-08-25T09:10:39;8.63;;;3.92;;
14040;SDS011;7095;51.388;6.196;2022-08-25T09:13:22;4.40;;;3.17;;
14040;SDS011;7095;51.388;6.196;2022-08-25T09:16:03;9.70;;;4.13;;
14040;SDS011;7095;51.388;6.196;2022-08-25T09:19:03;6.80;;;3.40;;
14040;SDS011;7095;51.388;6.196;2022-08-25T09:21:52;10.43;;;3.37;;
14040;SDS011;7095;51.388;6.196;2022-08-25T09:24:33;4.85;;;3.38;;
14040;SDS011;7095;51.388;6.196;2022-08-25T09:27:16;7.85;;;3.72;;
14040;SDS011;7095;51.388;6.196;2022-08-25T09:29:55;5.80;;;3.50;;
14040;SDS011;7095;51.388;6.196;2022-08-25T09:32:33;7.25;;;3.55;;
14040;SDS011;7095;51.388;6.196;2022-08-25T09:35:19;8.60;;;3.75;;
14040;SDS011;7095;51.388;6.196;2022-08-25T09:37:56;6.25;;;3.78;;
14040;SDS011;7095;51.388;6.196;2022-08-25T09:40:27;7.97;;;3.80;;
14040;SDS011;7095;51.388;6.196;2022-08-25T09:42:59;4.43;;;3.17;;
14040;SDS011;7095;51.388;6.196;2022-08-25T09:45:34;8.40;;;3.35;;
14040;SDS011;7095;51.388;6.196;2022-08-25T09:48:19;6.10;;;3.10;;
14040;SDS011;7095;51.388;6.196;2022-08-25T09:50:49;9.13;;;3.80;;
14040;SDS011;7095;51.388;6.196;2022-08-25T09:53:23;5.38;;;3.88;;
14040;SDS011;7095;51.388;6.196;2022-08-25T09:55:53;9.93;;;3.13;;
14040;SDS011;7095;51.388;6.196;2022-08-25T09:58:27;8.95;;;3.30;;
14040;SDS011;7095;51.388;6.196;2022-08-25T10:01:05;6.53;;;3.33;;
14040;SDS011;7095;51.388;6.196;2022-08-25T10:03:56;9.13;;;3.80;;
14040;SDS011;7095;51.388;6.196;2022-08-25T10:06:29;10.25;;;3.80;;
14040;SDS011;7095;51.388;6.196;2022-08-25T10:09:05;7.40;;;3.55;;
14040;SDS011;7095;51.388;6.196;2022-08-25T10:11:39;7.28;;;3.60;;
14040;SDS011;7095;51.388;6.196;2022-08-25T10:14:16;7.40;;;3.88;;
14040;SDS011;7095;51.388;6.196;2022-08-25T10:16:47;5.63;;;3.50;;
14040;SDS011;7095;51.388;6.196;2022-08-25T10:19:22;6.45;;;4.38;;
14040;SDS011;7095;51.388;6.196;2022-08-25T10:22:06;8.45;;;3.80;;
14040;SDS011;7095;51.388;6.196;2022-08-25T10:24:39;9.60;;;3.42;;
14040;SDS011;7095;51.388;6.196;2022-08-25T10:27:14;6.40;;;3.40;;
14040;SDS011;7095;51.388;6.196;2022-08-25T10:30:06;5.85;;;3.90;;
14040;SDS011;7095;51.388;6.196;2022-08-25T10:32:50;7.22;;;3.60;;
14040;SDS011;7095;51.388;6.196;2022-08-25T10:35:29;7.30;;;3.70;;
14040;SDS011;7095;51.388;6.196;2022-08-25T10:38:07;4.22;;;3.50;;
14040;SDS011;7095;51.388;6.196;2022-08-25T10:40:55;4.50;;;3.33;;
14040;SDS011;7095;51.388;6.196;2022-08-25T10:43:34;5.47;;;3.60;;
14040;SDS011;7095;51.388;6.196;2022-08-25T10:46:12;5.15;;;3.40;;
14040;SDS011;7095;51.388;6.196;2022-08-25T10:48:49;4.30;;;3.78;;
14040;SDS011;7095;51.388;6.196;2022-08-25T10:51:31;9.18;;;3.72;;
14040;SDS011;7095;51.388;6.196;2022-08-25T10:54:12;7.22;;;3.63;;
14040;SDS011;7095;51.388;6.196;2022-08-25T10:57:05;3.95;;;3.55;;
14040;SDS011;7095;51.388;6.196;2022-08-25T10:59:47;6.93;;;3.90;;
14040;SDS011;7095;51.388;6.196;2022-08-25T11:05:39;5.22;;;3.33;;
14040;SDS011;7095;51.388;6.196;2022-08-25T11:08:12;5.60;;;3.55;;
14040;SDS011;7095;51.388;6.196;2022-08-25T11:10:45;5.75;;;3.65;;
14040;SDS011;7095;51.388;6.196;2022-08-25T11:13:23;6.30;;;3.30;;
14040;SDS011;7095;51.388;6.196;2022-08-25T11:15:57;5.55;;;3.42;;
14040;SDS011;7095;51.388;6.196;2022-08-25T11:18:47;10.93;;;3.78;;
14040;SDS011;7095;51.388;6.196;2022-08-25T11:21:21;8.15;;;3.58;;
14040;SDS011;7095;51.388;6.196;2022-08-25T11:23:56;3.70;;;3.40;;
14040;SDS011;7095;51.388;6.196;2022-08-25T11:26:32;8.93;;;3.53;;
14040;SDS011;7095;51.388;6.196;2022-08-25T11:29:10;8.55;;;3.70;;
14040;SDS011;7095;51.388;6.196;2022-08-25T11:31:43;6.28;;;3.67;;
14040;SDS011;7095;51.388;6.196;2022-08-25T11:34:19;9.07;;;3.33;;
14040;SDS011;7095;51.388;6.196;2022-08-25T11:36:50;8.43;;;2.78;;
14040;SDS011;7095;51.388;6.196;2022-08-25T11:39:26;4.63;;;2.95;;
14040;SDS011;7095;51.388;6.196;2022-08-25T11:42:13;6.60;;;3.00;;
14040;SDS011;7095;51.388;6.196;2022-08-25T11:44:57;3.42;;;2.67;;
14040;SDS011;7095;51.388;6.196;2022-08-25T11:47:39;4.35;;;3.40;;
14040;SDS011;7095;51.388;6.196;2022-08-25T11:50:26;4.70;;;2.85;;
14040;SDS011;7095;51.388;6.196;2022-08-25T11:52:59;6.05;;;3.08;;
14040;SDS011;7095;51.388;6.196;2022-08-25T11:55:45;6.85;;;3.00;;
14040;SDS011;7095;51.388;6.196;2022-08-25T11:58:23;3.72;;;2.78;;
14040;SDS011;7095;51.388;6.196;2022-08-25T12:01:15;5.55;;;3.22;;
14040;SDS011;7095;51.388;6.196;2022-08-25T12:04:35;4.50;;;3.00;;
14040;SDS011;7095;51.388;6.196;2022-08-25T12:07:17;4.88;;;3.03;;
14040;SDS011;7095;51.388;6.196;2022-08-25T12:13:00;4.88;;;2.00;;
14040;SDS011;7095;51.388;6.196;2022-08-25T12:15:55;8.52;;;2.90;;
14040;SDS011;7095;51.388;6.196;2022-08-25T12:18:42;3.13;;;2.25;;
14040;SDS011;7095;51.388;6.196;2022-08-25T12:21:30;6.72;;;2.50;;
14040;SDS011;7095;51.388;6.196;2022-08-25T12:24:03;7.20;;;2.78;;
14040;SDS011;7095;51.388;6.196;2022-08-25T12:26:39;6.45;;;2.90;;
14040;SDS011;7095;51.388;6.196;2022-08-25T12:29:13;3.78;;;2.03;;
14040;SDS011;7095;51.388;6.196;2022-08-25T12:31:56;5.72;;;2.60;;
14040;SDS011;7095;51.388;6.196;2022-08-25T12:34:45;4.68;;;2.50;;
14040;SDS011;7095;51.388;6.196;2022-08-25T12:40:31;3.97;;;2.05;;
14040;SDS011;7095;51.388;6.196;2022-08-25T12:43:04;3.83;;;2.65;;
14040;SDS011;7095;51.388;6.196;2022-08-25T12:45:40;2.50;;;2.25;;
14040;SDS011;7095;51.388;6.196;2022-08-25T12:51:15;4.13;;;2.95;;
14040;SDS011;7095;51.388;6.196;2022-08-25T12:53:48;3.90;;;2.40;;
14040;SDS011;7095;51.388;6.196;2022-08-25T12:56:22;3.60;;;3.05;;
14040;SDS011;7095;51.388;6.196;2022-08-25T12:59:02;3.00;;;2.67;;
14040;SDS011;7095;51.388;6.196;2022-08-25T13:01:43;4.40;;;2.40;;
14040;SDS011;7095;51.388;6.196;2022-08-25T13:04:42;3.50;;;1.90;;
14040;SDS011;7095;51.388;6.196;2022-08-25T13:07:32;5.88;;;2.90;;
14040;SDS011;7095;51.388;6.196;2022-08-25T13:10:26;1.92;;;1.83;;
14040;SDS011;7095;51.388;6.196;2022-08-25T13:13:09;4.00;;;1.90;;
14040;SDS011;7095;51.388;6.196;2022-08-25T13:15:47;3.58;;;1.95;;
14040;SDS011;7095;51.388;6.196;2022-08-25T13:18:27;4.65;;;2.35;;
14040;SDS011;7095;51.388;6.196;2022-08-25T13:21:03;2.17;;;1.95;;
14040;SDS011;7095;51.388;6.196;2022-08-25T13:23:36;2.53;;;1.90;;
14040;SDS011;7095;51.388;6.196;2022-08-25T13:26:12;2.72;;;2.08;;
14040;SDS011;7095;51.388;6.196;2022-08-25T13:28:46;3.67;;;1.98;;
14040;SDS011;7095;51.388;6.196;2022-08-25T13:31:20;2.95;;;2.30;;
14040;SDS011;7095;51.388;6.196;2022-08-25T13:33:55;7.85;;;2.50;;
14040;SDS011;7095;51.388;6.196;2022-08-25T13:36:30;2.75;;;1.88;;
14040;SDS011;7095;51.388;6.196;2022-08-25T13:39:25;4.65;;;1.90;;
14040;SDS011;7095;51.388;6.196;2022-08-25T13:42:17;5.20;;;1.80;;
14040;SDS011;7095;51.388;6.196;2022-08-25T13:44:54;2.28;;;2.08;;
14040;SDS011;7095;51.388;6.196;2022-08-25T13:47:31;2.85;;;2.08;;
14040;SDS011;7095;51.388;6.196;2022-08-25T13:50:18;2.55;;;1.88;;
14040;SDS011;7095;51.388;6.196;2022-08-25T13:52:53;4.72;;;1.83;;
14040;SDS011;7095;51.388;6.196;2022-08-25T13:55:32;3.00;;;1.98;;
14040;SDS011;7095;51.388;6.196;2022-08-25T13:58:20;4.45;;;1.92;;
14040;SDS011;7095;51.388;6.196;2022-08-25T14:01:11;1.90;;;1.55;;
14040;SDS011;7095;51.388;6.196;2022-08-25T14:04:22;2.65;;;2.05;;
14040;SDS011;7095;51.388;6.196;2022-08-25T14:07:05;2.42;;;2.20;;
14040;SDS011;7095;51.388;6.196;2022-08-25T14:09:39;3.40;;;2.10;;
14040;SDS011;7095;51.388;6.196;2022-08-25T14:12:25;3.33;;;1.73;;
14040;SDS011;7095;51.388;6.196;2022-08-25T14:15:02;3.40;;;1.80;;
14040;SDS011;7095;51.388;6.196;2022-08-25T14:17:35;5.25;;;1.65;;
14040;SDS011;7095;51.388;6.196;2022-08-25T14:20:14;3.22;;;1.75;;
14040;SDS011;7095;51.388;6.196;2022-08-25T14:22:46;8.10;;;2.05;;
14040;SDS011;7095;51.388;6.196;2022-08-25T14:25:19;2.15;;;1.67;;
14040;SDS011;7095;51.388;6.196;2022-08-25T14:27:53;2.15;;;1.70;;
14040;SDS011;7095;51.388;6.196;2022-08-25T14:30:41;4.75;;;1.77;;
14040;SDS011;7095;51.388;6.196;2022-08-25T14:33:14;3.35;;;2.00;;
14040;SDS011;7095;51.388;6.196;2022-08-25T14:35:47;10.02;;;1.95;;
14040;SDS011;7095;51.388;6.196;2022-08-25T14:38:19;3.47;;;2.28;;
14040;SDS011;7095;51.388;6.196;2022-08-25T14:40:49;5.80;;;2.05;;
14040;SDS011;7095;51.388;6.196;2022-08-25T14:43:20;2.75;;;1.77;;
14040;SDS011;7095;51.388;6.196;2022-08-25T14:45:51;6.78;;;1.92;;
14040;SDS011;7095;51.388;6.196;2022-08-25T14:48:22;3.80;;;2.22;;
14040;SDS011;7095;51.388;6.196;2022-08-25T14:50:54;3.50;;;2.40;;
14040;SDS011;7095;51.388;6.196;2022-08-25T14:53:25;4.22;;;2.58;;
14040;SDS011;7095;51.388;6.196;2022-08-25T14:55:55;4.13;;;2.13;;
14040;SDS011;7095;51.388;6.196;2022-08-25T14:58:25;3.08;;;2.30;;
14040;SDS011;7095;51.388;6.196;2022-08-25T15:01:01;5.85;;;2.08;;
14040;SDS011;7095;51.388;6.196;2022-08-25T15:03:33;3.30;;;1.70;;
14040;SDS011;7095;51.388;6.196;2022-08-25T15:06:04;1.88;;;1.77;;
14040;SDS011;7095;51.388;6.196;2022-08-25T15:08:37;4.05;;;2.53;;
14040;SDS011;7095;51.388;6.196;2022-08-25T15:11:24;3.70;;;1.73;;
14040;SDS011;7095;51.388;6.196;2022-08-25T15:13:54;2.70;;;1.65;;
14040;SDS011;7095;51.388;6.196;2022-08-25T15:16:26;4.25;;;1.98;;
14040;SDS011;7095;51.388;6.196;2022-08-25T15:19:01;5.00;;;2.22;;
14040;SDS011;7095;51.388;6.196;2022-08-25T15:21:33;4.90;;;2.00;;
14040;SDS011;7095;51.388;6.196;2022-08-25T15:24:02;4.13;;;1.80;;
14040;SDS011;7095;51.388;6.196;2022-08-25T15:26:33;3.15;;;1.77;;
14040;SDS011;7095;51.388;6.196;2022-08-25T15:29:07;5.00;;;1.77;;
14040;SDS011;7095;51.388;6.196;2022-08-25T15:31:37;4.80;;;2.13;;
14040;SDS011;7095;51.388;6.196;2022-08-25T15:34:08;4.13;;;2.00;;
14040;SDS011;7095;51.388;6.196;2022-08-25T15:36:38;2.38;;;1.85;;
14040;SDS011;7095;51.388;6.196;2022-08-25T15:39:07;4.03;;;2.08;;
14040;SDS011;7095;51.388;6.196;2022-08-25T15:41:37;2.42;;;2.20;;
14040;SDS011;7095;51.388;6.196;2022-08-25T15:44:08;3.05;;;2.17;;
14040;SDS011;7095;51.388;6.196;2022-08-25T15:46:39;2.72;;;2.13;;
14040;SDS011;7095;51.388;6.196;2022-08-25T15:49:16;9.23;;;2.60;;
14040;SDS011;7095;51.388;6.196;2022-08-25T15:51:49;4.03;;;2.50;;
14040;SDS011;7095;51.388;6.196;2022-08-25T15:54:20;5.40;;;2.20;;